createdAt,value
2022-11-04T00:02:06.589Z,2.27
2022-11-04T00:04:33.284Z,2.40
2022-11-04T00:07:00.208Z,2.47
2022-11-04T00:09:28.701Z,2.03
2022-11-04T00:12:14.194Z,1.63
2022-11-04T00:14:40.882Z,1.57
2022-11-04T00:17:20.043Z,1.60
2022-11-04T00:20:07.458Z,1.80
2022-11-04T00:22:59.999Z,2.00
2022-11-04T00:25:45.562Z,1.80
2022-11-04T00:28:34.492Z,1.37
2022-11-04T00:31:22.470Z,1.37
2022-11-04T00:33:50.443Z,1.20
2022-11-04T00:36:17.208Z,1.43
2022-11-04T00:38:43.836Z,1.90
2022-11-04T00:41:30.051Z,1.67
2022-11-04T00:43:56.835Z,1.20
2022-11-04T00:46:23.400Z,1.30
2022-11-04T00:48:50.001Z,1.60
2022-11-04T00:51:16.677Z,1.63
2022-11-04T00:53:43.206Z,1.63
2022-11-04T00:56:09.694Z,1.53
2022-11-04T00:58:36.905Z,1.67
2022-11-04T01:01:10.554Z,1.50
2022-11-04T01:03:37.197Z,1.73
2022-11-04T01:06:03.982Z,1.57
2022-11-04T01:08:30.579Z,1.40
2022-11-04T01:10:57.311Z,1.30
2022-11-04T01:13:23.839Z,1.30
2022-11-04T01:15:50.342Z,1.40
2022-11-04T01:18:16.828Z,1.63
2022-11-04T01:20:43.267Z,1.50
2022-11-04T01:23:09.833Z,1.60
2022-11-04T01:25:40.657Z,2.13
2022-11-04T01:28:07.993Z,1.90
2022-11-04T01:30:35.281Z,1.83
2022-11-04T01:33:01.790Z,1.43
2022-11-04T01:35:28.252Z,1.80
2022-11-04T01:37:54.836Z,2.30
2022-11-04T01:40:21.306Z,1.90
2022-11-04T01:42:47.887Z,2.00
2022-11-04T01:45:16.812Z,2.83
2022-11-04T01:47:46.265Z,2.00
2022-11-04T01:50:16.258Z,1.90
2022-11-04T01:52:50.441Z,1.67
2022-11-04T01:55:22.761Z,2.23
2022-11-04T01:57:50.320Z,2.50
2022-11-04T02:00:17.110Z,2.80
2022-11-04T02:02:53.865Z,2.47
2022-11-04T02:05:21.198Z,2.80
2022-11-04T02:07:53.224Z,2.00
2022-11-04T02:10:21.351Z,2.43
2022-11-04T02:12:51.049Z,2.30
2022-11-04T02:15:39.022Z,2.60
2022-11-04T02:18:47.641Z,2.70
2022-11-04T02:21:25.368Z,2.80
2022-11-04T02:24:30.442Z,2.80
2022-11-04T02:27:27.831Z,3.00
2022-11-04T02:30:00.328Z,2.90
2022-11-04T02:33:15.516Z,2.80
2022-11-04T02:35:54.320Z,2.67
2022-11-04T02:38:30.797Z,3.23
2022-11-04T02:40:57.175Z,2.70
2022-11-04T02:43:39.614Z,2.77
2022-11-04T02:46:32.144Z,3.00
2022-11-04T02:49:07.825Z,2.50
2022-11-04T02:51:54.986Z,2.63
2022-11-04T02:54:36.519Z,2.60
2022-11-04T02:57:05.106Z,3.00
2022-11-04T03:00:16.261Z,2.60
2022-11-04T03:02:46.793Z,2.63
2022-11-04T03:05:16.391Z,2.60
2022-11-04T03:07:44.125Z,2.63
2022-11-04T03:10:30.616Z,2.13
2022-11-04T03:13:02.860Z,2.77
2022-11-04T03:15:32.041Z,2.40
2022-11-04T03:18:08.703Z,2.67
2022-11-04T03:20:36.757Z,2.70
2022-11-04T03:23:03.929Z,2.70
2022-11-04T03:25:35.379Z,2.70
2022-11-04T03:28:02.265Z,2.50
2022-11-04T03:30:36.287Z,2.70
2022-11-04T03:33:12.614Z,3.10
2022-11-04T03:35:40.553Z,2.30
2022-11-04T03:38:07.105Z,2.40
2022-11-04T03:40:34.721Z,2.93
2022-11-04T03:43:09.154Z,2.90
2022-11-04T03:45:36.019Z,2.67
2022-11-04T03:48:02.917Z,3.30
2022-11-04T03:50:35.727Z,2.87
2022-11-04T03:53:02.419Z,3.60
2022-11-04T03:55:54.122Z,2.90
2022-11-04T03:58:45.459Z,2.93
2022-11-04T04:01:36.929Z,3.37
2022-11-04T04:04:06.566Z,2.97
2022-11-04T04:06:35.908Z,3.07
2022-11-04T04:09:11.634Z,3.37
2022-11-04T04:11:47.227Z,3.70
2022-11-04T04:14:41.357Z,3.20
2022-11-04T04:17:13.872Z,3.73
2022-11-04T04:19:45.724Z,3.40
2022-11-04T04:22:22.884Z,2.77
2022-11-04T04:25:09.603Z,3.53
2022-11-04T04:27:36.405Z,3.43
2022-11-04T04:30:09.705Z,3.77
2022-11-04T04:32:39.724Z,3.70
2022-11-04T04:35:26.331Z,4.50
2022-11-04T04:37:54.777Z,3.47
2022-11-04T04:40:42.884Z,3.03
2022-11-04T04:43:33.486Z,3.20
2022-11-04T04:46:00.881Z,3.40
2022-11-04T04:48:27.361Z,3.20
2022-11-04T04:50:57.197Z,3.33
2022-11-04T04:53:23.757Z,3.37
2022-11-04T04:55:50.207Z,3.47
2022-11-04T04:58:16.768Z,3.77
2022-11-04T05:00:43.247Z,3.27
2022-11-04T05:03:10.134Z,3.60
2022-11-04T05:05:36.916Z,9.87
2022-11-04T05:08:08.257Z,3.83
2022-11-04T05:10:35.172Z,3.57
2022-11-04T05:13:20.471Z,3.50
2022-11-04T05:15:47.025Z,3.23
2022-11-04T05:18:13.509Z,3.50
2022-11-04T05:20:40.606Z,3.73
2022-11-04T05:23:08.044Z,3.33
2022-11-04T05:25:34.685Z,3.17
2022-11-04T05:28:02.057Z,3.23
2022-11-04T05:30:28.997Z,3.60
2022-11-04T05:32:59.809Z,3.20
2022-11-04T05:35:30.257Z,3.43
2022-11-04T05:37:57.181Z,3.30
2022-11-04T05:40:24.650Z,4.00
2022-11-04T05:42:51.169Z,3.70
2022-11-04T05:45:17.873Z,4.37
2022-11-04T05:47:45.115Z,4.03
2022-11-04T05:50:11.737Z,4.07
2022-11-04T05:52:38.282Z,4.30
2022-11-04T05:55:05.398Z,3.67
2022-11-04T05:57:31.899Z,4.07
2022-11-04T05:59:58.444Z,3.90
2022-11-04T06:02:26.205Z,4.00
2022-11-04T06:04:52.969Z,3.57
2022-11-04T06:07:19.451Z,3.40
2022-11-04T06:09:46.054Z,3.70
2022-11-04T06:12:17.455Z,3.63
2022-11-04T06:14:44.376Z,3.77
2022-11-04T06:17:15.259Z,3.67
2022-11-04T06:19:41.936Z,3.57
2022-11-04T06:22:11.169Z,3.97
2022-11-04T06:24:37.925Z,3.90
2022-11-04T06:27:05.025Z,3.60
2022-11-04T06:29:31.645Z,3.43
2022-11-04T06:31:58.305Z,4.20
2022-11-04T06:34:25.061Z,4.70
2022-11-04T06:36:51.717Z,3.70
2022-11-04T06:39:18.194Z,4.00
2022-11-04T06:41:47.629Z,2.93
2022-11-04T06:44:17.073Z,3.20
2022-11-04T06:46:43.905Z,3.33
2022-11-04T06:49:13.631Z,3.67
2022-11-04T06:51:40.712Z,3.80
2022-11-04T06:54:07.766Z,3.13
2022-11-04T06:56:34.323Z,4.00
2022-11-04T06:59:00.853Z,3.10
2022-11-04T07:01:29.703Z,3.50
2022-11-04T07:03:58.126Z,3.40
2022-11-04T07:06:25.667Z,3.00
2022-11-04T07:08:53.078Z,3.00
2022-11-04T07:11:21.451Z,4.10
2022-11-04T07:13:49.026Z,3.97
2022-11-04T07:16:16.372Z,3.13
2022-11-04T07:18:43.693Z,4.37
2022-11-04T07:21:11.251Z,4.23
2022-11-04T07:23:38.025Z,4.07
2022-11-04T07:26:06.743Z,2.53
2022-11-04T07:28:33.765Z,2.80
2022-11-04T07:31:02.238Z,2.47
2022-11-04T07:33:28.716Z,3.57
2022-11-04T07:35:58.208Z,18.73
2022-11-04T07:38:25.297Z,2.60
2022-11-04T07:40:51.694Z,1.90
2022-11-04T07:43:18.453Z,2.30
2022-11-04T07:45:45.005Z,2.43
2022-11-04T07:48:11.714Z,2.80
2022-11-04T07:50:40.666Z,2.33
2022-11-04T07:53:08.418Z,3.00
2022-11-04T07:55:42.068Z,2.47
2022-11-04T07:58:10.772Z,2.67
2022-11-04T08:00:37.280Z,3.03
2022-11-04T08:03:03.853Z,3.33
2022-11-04T08:05:30.521Z,3.70
2022-11-04T08:07:57.877Z,2.80
2022-11-04T08:10:24.558Z,3.00
2022-11-04T08:12:52.175Z,3.80
2022-11-04T08:15:18.697Z,4.20
2022-11-04T08:17:45.259Z,4.63
2022-11-04T08:20:13.096Z,3.43
2022-11-04T08:22:39.806Z,3.73
2022-11-04T08:25:06.717Z,2.60
2022-11-04T08:27:34.436Z,3.50
2022-11-04T08:30:00.933Z,3.40
2022-11-04T08:32:27.569Z,2.90
2022-11-04T08:34:54.024Z,2.90
2022-11-04T08:37:20.600Z,3.60
2022-11-04T08:39:47.124Z,3.10
2022-11-04T08:42:13.826Z,3.37
2022-11-04T08:44:41.075Z,2.10
2022-11-04T08:47:07.583Z,2.80
2022-11-04T08:49:38.884Z,3.17
2022-11-04T08:52:05.732Z,3.07
2022-11-04T08:54:32.243Z,2.10
2022-11-04T08:56:58.865Z,2.50
2022-11-04T08:59:25.478Z,4.30
2022-11-04T09:01:52.295Z,3.47
2022-11-04T09:04:19.823Z,3.50
2022-11-04T09:06:47.167Z,2.27
2022-11-04T09:09:15.353Z,2.30
2022-11-04T09:11:43.286Z,2.10
2022-11-04T09:14:10.506Z,2.30
2022-11-04T09:16:38.020Z,2.53
2022-11-04T09:19:04.630Z,1.90
2022-11-04T09:21:31.126Z,1.50
2022-11-04T09:23:57.654Z,2.07
2022-11-04T09:26:24.567Z,1.50
2022-11-04T09:28:58.233Z,2.17
2022-11-04T09:31:26.769Z,2.07
2022-11-04T09:33:54.920Z,2.67
2022-11-04T09:36:21.452Z,2.30
2022-11-04T09:38:47.969Z,1.93
2022-11-04T09:41:46.022Z,2.20
2022-11-04T09:44:28.204Z,2.40
2022-11-04T09:47:01.851Z,1.60
2022-11-04T09:49:32.675Z,1.97
2022-11-04T09:51:59.604Z,1.60
2022-11-04T09:54:47.097Z,2.40
2022-11-04T09:57:17.885Z,2.67
2022-11-04T09:59:44.665Z,2.30
2022-11-04T10:02:11.761Z,2.40
2022-11-04T10:04:57.091Z,1.60
2022-11-04T10:07:42.711Z,2.30
2022-11-04T10:10:37.986Z,1.70
2022-11-04T10:13:17.489Z,1.93
2022-11-04T10:16:13.254Z,2.73
2022-11-04T10:18:57.646Z,2.17
2022-11-04T10:22:04.608Z,2.53
2022-11-04T10:24:57.390Z,2.00
2022-11-04T10:27:27.430Z,2.27
2022-11-04T10:29:58.448Z,1.93
2022-11-04T10:33:00.150Z,2.33
2022-11-04T10:35:48.633Z,2.17
2022-11-04T10:38:22.844Z,2.00
2022-11-04T10:40:52.007Z,2.00
2022-11-04T10:43:33.361Z,2.40
2022-11-04T10:46:12.201Z,2.10
2022-11-04T10:48:49.663Z,2.20
2022-11-04T10:51:22.142Z,3.17
2022-11-04T10:53:55.302Z,2.00
2022-11-04T10:56:40.891Z,2.10
2022-11-04T10:59:21.545Z,1.90
2022-11-04T11:01:52.159Z,3.00
2022-11-04T11:04:33.658Z,2.40
2022-11-04T11:07:05.463Z,2.10
2022-11-04T11:09:33.728Z,2.50
2022-11-04T11:12:09.836Z,2.10
2022-11-04T11:14:44.460Z,1.70
2022-11-04T11:17:39.088Z,2.87
2022-11-04T11:20:16.778Z,2.73
2022-11-04T11:22:45.014Z,2.07
2022-11-04T11:25:25.099Z,2.63
2022-11-04T11:27:56.401Z,2.20
2022-11-04T11:30:26.176Z,2.20
2022-11-04T11:32:55.848Z,2.90
2022-11-04T11:35:26.023Z,2.17
2022-11-04T11:37:52.784Z,2.80
2022-11-04T11:40:26.965Z,2.30
2022-11-04T11:42:53.835Z,1.93
2022-11-04T11:45:21.049Z,2.70
2022-11-04T11:47:52.393Z,2.37
2022-11-04T11:50:35.685Z,2.43
2022-11-04T11:53:16.972Z,2.40
2022-11-04T11:56:09.624Z,1.70
2022-11-04T12:01:42.361Z,1.93
2022-11-04T12:10:50.516Z,2.10
2022-11-04T12:13:32.215Z,1.60
2022-11-04T12:16:17.426Z,2.30
2022-11-04T12:19:08.594Z,1.70
2022-11-04T12:22:18.634Z,2.07
2022-11-04T12:24:56.332Z,2.60
2022-11-04T12:27:33.292Z,1.50
2022-11-04T12:30:10.439Z,1.97
2022-11-04T12:32:58.293Z,1.97
2022-11-04T12:35:42.976Z,2.20
2022-11-04T12:38:26.208Z,2.00
2022-11-04T12:41:46.725Z,2.27
2022-11-04T12:44:42.294Z,2.13
2022-11-04T12:47:27.426Z,2.00
2022-11-04T12:50:15.778Z,1.90
2022-11-04T12:53:19.488Z,2.30
2022-11-04T12:56:09.659Z,2.07
2022-11-04T12:58:47.635Z,1.90
2022-11-04T13:01:22.305Z,2.30
2022-11-04T13:03:53.698Z,2.53
2022-11-04T13:06:31.106Z,2.37
2022-11-04T13:09:05.854Z,2.20
2022-11-04T13:11:49.814Z,2.50
2022-11-04T13:14:22.856Z,2.23
2022-11-04T13:16:54.330Z,2.37
2022-11-04T13:19:25.318Z,2.13
2022-11-04T13:21:53.204Z,2.23
2022-11-04T13:24:25.965Z,2.30
2022-11-04T13:26:52.571Z,3.17
2022-11-04T13:29:21.854Z,3.80
2022-11-04T13:31:51.224Z,4.10
2022-11-04T13:34:37.590Z,4.50
2022-11-04T13:37:25.299Z,3.20
2022-11-04T13:39:56.438Z,4.33
2022-11-04T13:42:41.229Z,4.33
2022-11-04T13:45:14.068Z,4.00
2022-11-04T13:47:50.554Z,3.63
2022-11-04T13:50:36.548Z,3.90
2022-11-04T13:53:09.426Z,4.93
2022-11-04T13:55:37.137Z,3.60
2022-11-04T13:58:05.468Z,4.60
2022-11-04T14:00:33.313Z,4.17
2022-11-04T14:03:01.708Z,4.37
2022-11-04T14:05:28.466Z,4.40
2022-11-04T14:08:01.241Z,4.13
2022-11-04T14:10:48.898Z,4.23
2022-11-04T14:13:31.955Z,4.10
2022-11-04T14:16:17.520Z,4.00
2022-11-04T14:18:46.270Z,4.10
2022-11-04T14:21:26.762Z,5.50
2022-11-04T14:24:00.217Z,4.70
2022-11-04T14:26:30.760Z,4.13
2022-11-04T14:29:05.132Z,4.60
2022-11-04T14:31:43.936Z,5.10
2022-11-04T14:34:25.574Z,5.50
2022-11-04T14:36:56.854Z,4.80
2022-11-04T14:39:31.266Z,5.30
2022-11-04T14:42:01.884Z,5.37
2022-11-04T14:44:34.517Z,4.87
2022-11-04T14:47:19.576Z,5.70
2022-11-04T14:50:01.143Z,5.50
2022-11-04T14:52:35.297Z,6.47
2022-11-04T14:55:14.676Z,5.40
2022-11-04T14:57:55.931Z,6.40
2022-11-04T15:00:39.778Z,5.97
2022-11-04T15:04:08.727Z,5.90
2022-11-04T15:06:10.955Z,6.63
2022-11-04T15:08:42.938Z,6.00
2022-11-04T15:11:17.709Z,6.77
2022-11-04T15:13:48.534Z,5.90
2022-11-04T15:16:21.308Z,6.00
2022-11-04T15:18:48.134Z,6.40
2022-11-04T15:21:15.208Z,5.67
2022-11-04T15:23:50.178Z,6.03
2022-11-04T15:26:30.123Z,5.73
2022-11-04T15:29:00.238Z,6.07
2022-11-04T15:31:32.505Z,6.03
2022-11-04T15:34:01.079Z,6.63
2022-11-04T15:36:39.743Z,6.87
2022-11-04T15:39:20.150Z,6.87
2022-11-04T15:42:06.510Z,7.60
2022-11-04T15:44:35.521Z,8.30
2022-11-04T15:47:22.983Z,7.90
2022-11-04T15:49:51.988Z,7.97
2022-11-04T15:52:24.048Z,9.50
2022-11-04T15:54:55.399Z,8.63
2022-11-04T15:57:32.331Z,8.10
2022-11-04T16:00:06.429Z,9.37
2022-11-04T16:02:37.683Z,7.80
2022-11-04T16:05:10.618Z,8.27
2022-11-04T16:07:39.148Z,8.97
2022-11-04T16:10:25.782Z,8.60
2022-11-04T16:13:18.322Z,8.40
2022-11-04T16:15:51.584Z,8.23
2022-11-04T16:18:35.159Z,7.97
2022-11-04T16:21:30.746Z,8.20
2022-11-04T16:24:04.803Z,8.10
2022-11-04T16:26:44.452Z,9.23
2022-11-04T16:29:21.346Z,7.50
2022-11-04T16:32:05.723Z,7.60
2022-11-04T16:34:32.208Z,7.37
2022-11-04T16:36:59.037Z,8.13
2022-11-04T16:39:25.470Z,7.40
2022-11-04T16:41:52.054Z,7.90
2022-11-04T16:44:21.610Z,7.20
2022-11-04T16:46:48.465Z,6.97
2022-11-04T16:49:16.521Z,7.87
2022-11-04T16:51:43.212Z,6.43
2022-11-04T16:54:10.309Z,6.77
2022-11-04T16:56:38.260Z,7.00
2022-11-04T16:59:05.225Z,7.27
2022-11-04T17:01:32.038Z,6.83
2022-11-04T17:03:58.595Z,7.60
2022-11-04T17:06:25.516Z,7.27
2022-11-04T17:08:53.210Z,7.03
2022-11-04T17:11:19.915Z,6.50
2022-11-04T17:13:46.405Z,6.67
2022-11-04T17:16:14.193Z,7.70
2022-11-04T17:18:41.207Z,7.07
2022-11-04T17:21:09.504Z,7.17
2022-11-04T17:23:36.073Z,6.20
2022-11-04T17:26:03.284Z,6.50
2022-11-04T17:28:31.513Z,8.00
2022-11-04T17:30:58.050Z,7.50
2022-11-04T17:33:24.672Z,6.70
2022-11-04T17:35:51.612Z,7.70
2022-11-04T17:38:18.674Z,6.40
2022-11-04T17:41:04.210Z,6.80
2022-11-04T17:43:49.930Z,6.27
2022-11-04T17:46:35.300Z,7.03
2022-11-04T17:49:03.837Z,6.63
2022-11-04T17:51:31.207Z,7.70
2022-11-04T17:53:58.009Z,7.80
2022-11-04T17:56:25.255Z,8.93
2022-11-04T17:58:52.220Z,8.97
2022-11-04T18:01:21.846Z,9.37
2022-11-04T18:03:48.427Z,10.30
2022-11-04T18:06:14.913Z,10.30
2022-11-04T18:08:41.449Z,11.50
2022-11-04T18:11:10.476Z,10.13
2022-11-04T18:13:37.328Z,10.83
2022-11-04T18:16:11.893Z,12.20
2022-11-04T18:18:38.978Z,12.17
2022-11-04T18:21:07.826Z,10.93
2022-11-04T18:23:34.657Z,10.93
2022-11-04T18:26:02.844Z,10.60
2022-11-04T18:28:29.394Z,11.37
2022-11-04T18:30:55.919Z,11.97
2022-11-04T18:33:22.408Z,10.93
2022-11-04T18:35:48.818Z,11.27
2022-11-04T18:38:15.338Z,9.43
2022-11-04T18:40:41.810Z,11.80
2022-11-04T18:43:09.261Z,12.60
2022-11-04T18:45:36.521Z,10.40
2022-11-04T18:48:03.053Z,10.30
2022-11-04T18:50:30.217Z,9.53
2022-11-04T18:52:56.668Z,9.17
2022-11-04T18:55:24.001Z,10.13
2022-11-04T18:57:54.580Z,9.40
2022-11-04T19:00:21.562Z,9.37
2022-11-04T19:02:48.284Z,9.30
2022-11-04T19:05:14.997Z,8.80
2022-11-04T19:07:42.040Z,9.00
2022-11-04T19:10:09.118Z,9.77
2022-11-04T19:12:54.516Z,9.93
2022-11-04T19:15:21.121Z,10.40
2022-11-04T19:17:47.601Z,9.67
2022-11-04T19:20:14.483Z,10.77
2022-11-04T19:22:41.243Z,10.10
2022-11-04T19:25:08.951Z,11.40
2022-11-04T19:27:35.624Z,13.57
2022-11-04T19:30:02.178Z,12.50
2022-11-04T19:32:28.717Z,13.40
2022-11-04T19:34:55.269Z,14.47
2022-11-04T19:37:21.705Z,14.40
2022-11-04T19:39:48.163Z,15.53
2022-11-04T19:42:34.285Z,14.47
2022-11-04T19:45:02.221Z,15.33
2022-11-04T19:47:28.747Z,15.47
2022-11-04T19:49:55.759Z,16.87
2022-11-04T19:52:22.637Z,17.13
2022-11-04T19:54:49.105Z,16.30
2022-11-04T19:57:16.368Z,16.30
2022-11-04T19:59:42.903Z,17.20
2022-11-04T20:02:13.057Z,18.07
2022-11-04T20:04:39.602Z,17.33
2022-11-04T20:07:06.145Z,18.00
2022-11-04T20:09:32.660Z,17.13
2022-11-04T20:12:17.927Z,16.40
2022-11-04T20:14:44.753Z,14.77
2022-11-04T20:17:11.269Z,14.33
2022-11-04T20:19:37.729Z,12.63
2022-11-04T20:22:04.207Z,14.50
2022-11-04T20:24:30.804Z,13.70
2022-11-04T20:26:57.497Z,14.03
2022-11-04T20:29:24.411Z,12.83
2022-11-04T20:31:50.899Z,12.03
2022-11-04T20:34:17.461Z,12.23
2022-11-04T20:36:44.079Z,13.20
2022-11-04T20:39:14.468Z,12.97
2022-11-04T20:41:42.067Z,12.90
2022-11-04T20:44:13.143Z,12.60
2022-11-04T20:46:40.112Z,13.07
2022-11-04T20:49:06.830Z,14.07
2022-11-04T20:51:35.969Z,13.13
2022-11-04T20:54:06.552Z,12.33
2022-11-04T20:56:35.954Z,13.20
2022-11-04T20:59:04.501Z,12.00
2022-11-04T21:01:33.640Z,14.50
2022-11-04T21:04:03.280Z,14.03
2022-11-04T21:06:30.334Z,14.93
2022-11-04T21:08:58.846Z,16.47
2022-11-04T21:11:31.548Z,16.07
2022-11-04T21:13:58.923Z,16.90
2022-11-04T21:16:25.446Z,14.77
2022-11-04T21:18:51.951Z,17.40
2022-11-04T21:21:20.441Z,16.83
2022-11-04T21:23:47.099Z,16.20
2022-11-04T21:26:24.631Z,17.40
2022-11-04T21:29:01.412Z,16.43
2022-11-04T21:31:29.866Z,16.33
2022-11-04T21:33:56.584Z,16.83
2022-11-04T21:36:23.427Z,16.83
2022-11-04T21:38:50.394Z,17.17
2022-11-04T21:41:22.175Z,17.87
2022-11-04T21:43:53.803Z,17.60
2022-11-04T21:46:20.316Z,17.13
2022-11-04T21:48:46.811Z,16.70
2022-11-04T21:51:16.309Z,18.27
2022-11-04T21:53:43.237Z,17.77
2022-11-04T21:56:15.540Z,17.07
2022-11-04T21:58:43.362Z,16.00
2022-11-04T22:01:17.242Z,17.10
2022-11-04T22:03:44.370Z,16.10
2022-11-04T22:06:13.161Z,18.83
2022-11-04T22:08:44.006Z,18.17
2022-11-04T22:11:13.753Z,19.73
2022-11-04T22:13:40.931Z,19.50
2022-11-04T22:16:16.059Z,19.00
2022-11-04T22:18:43.296Z,19.87
2022-11-04T22:21:15.594Z,19.00
2022-11-04T22:23:42.967Z,20.73
2022-11-04T22:26:24.758Z,18.50
2022-11-04T22:28:51.908Z,19.23
2022-11-04T22:31:27.631Z,20.00
2022-11-04T22:33:54.396Z,19.10
2022-11-04T22:36:21.194Z,20.03
2022-11-04T22:38:47.714Z,19.60
2022-11-04T22:41:24.387Z,18.20
2022-11-04T22:43:50.982Z,19.10
2022-11-04T22:46:23.626Z,19.17
2022-11-04T22:48:50.581Z,20.33
2022-11-04T22:51:17.317Z,19.60
2022-11-04T22:53:44.599Z,19.43
2022-11-04T22:56:13.130Z,18.83
2022-11-04T22:58:40.717Z,21.10
2022-11-04T23:01:12.620Z,20.33
2022-11-04T23:03:39.644Z,19.77
2022-11-04T23:06:07.372Z,21.00
2022-11-04T23:08:35.505Z,20.50
2022-11-04T23:11:24.911Z,20.90
2022-11-04T23:14:20.085Z,20.23
2022-11-04T23:17:08.534Z,21.37
2022-11-04T23:19:35.731Z,21.23
2022-11-04T23:22:20.986Z,22.60
2022-11-04T23:25:05.985Z,20.70
2022-11-04T23:27:56.804Z,21.07
2022-11-04T23:30:25.747Z,21.60
2022-11-04T23:33:04.385Z,21.13
2022-11-04T23:35:54.145Z,22.83
2022-11-04T23:38:20.894Z,21.40
2022-11-04T23:41:08.200Z,21.93
2022-11-04T23:43:35.432Z,22.53
2022-11-04T23:46:21.142Z,20.77
2022-11-04T23:49:06.195Z,21.10
2022-11-04T23:51:51.658Z,21.43
2022-11-04T23:54:36.869Z,21.30
2022-11-04T23:57:22.196Z,20.00
